Time;durP1;ratioP1;P1;durP2;ratioP2;P2;SDS_P1;SDS_P2;PMS_P1;PMS_P2;Temp;Humidity;BMP_temperature;BMP_pressure;BME280_temperature;BME280_humidity;BME280_pressure;Samples;Min_cycle;Max_cycle;Signal;HPM_P1;HPM_P2
2022/10/01 00:00:25;;;;;;;9.23;5.15;;;12.20;99.90;;;;;;5074739;28;20052;-73
2022/10/01 00:02:54;;;;;;;5.00;4.63;;;12.30;99.90;;;;;;5074109;28;20032;-74
2022/10/01 00:05:20;;;;;;;5.88;5.38;;;12.30;99.90;;;;;;5074778;28;20020;-74
2022/10/01 00:07:46;;;;;;;5.10;4.60;;;12.30;99.90;;;;;;5074655;28;20029;-74
2022/10/01 00:10:13;;;;;;;5.50;4.85;;;12.30;99.90;;;;;;5074029;28;20054;-74
2022/10/01 00:12:44;;;;;;;6.40;5.13;;;12.30;99.90;;;;;;5074650;28;20024;-74
2022/10/01 00:15:11;;;;;;;6.93;4.97;;;12.20;99.90;;;;;;5074113;28;20480;-74
2022/10/01 00:17:37;;;;;;;5.38;4.65;;;12.20;99.90;;;;;;5074168;28;20113;-74
2022/10/01 00:20:05;;;;;;;5.78;4.60;;;12.20;99.90;;;;;;5074571;28;20111;-73
2022/10/01 00:22:32;;;;;;;5.10;4.60;;;12.30;99.90;;;;;;5073341;28;20047;-74
2022/10/01 00:24:58;;;;;;;5.03;4.40;;;12.20;99.90;;;;;;5074445;28;20385;-74
2022/10/01 00:27:25;;;;;;;5.05;4.65;;;12.40;99.90;;;;;;5074168;28;20044;-74
2022/10/01 00:29:51;;;;;;;6.25;4.45;;;12.20;99.90;;;;;;5073800;28;20035;-74
2022/10/01 00:32:17;;;;;;;6.82;4.50;;;12.20;99.90;;;;;;5074390;28;20024;-74
2022/10/01 00:34:42;;;;;;;5.00;4.63;;;12.20;99.90;;;;;;5074078;28;20143;-74
2022/10/01 00:37:11;;;;;;;4.70;4.30;;;12.10;99.90;;;;;;5073917;28;20033;-74
2022/10/01 00:39:37;;;;;;;4.35;3.95;;;12.10;99.90;;;;;;5073954;28;20062;-74
2022/10/01 00:42:15;;;;;;;4.85;4.25;;;12.10;99.90;;;;;;5075296;28;20033;-77
2022/10/01 00:44:41;;;;;;;4.72;4.32;;;12.10;99.90;;;;;;5075347;28;20392;-75
2022/10/01 00:47:22;;;;;;;4.35;3.95;;;12.10;99.90;;;;;;5074383;28;20016;-74
2022/10/01 00:49:52;;;;;;;5.00;4.30;;;12.10;99.90;;;;;;5073695;28;20380;-73
2022/10/01 00:52:23;;;;;;;6.60;3.55;;;12.00;99.90;;;;;;5073378;28;20024;-74
2022/10/01 00:54:55;;;;;;;4.45;3.67;;;12.10;99.90;;;;;;5073169;28;20032;-74
2022/10/01 00:57:25;;;;;;;4.35;4.05;;;12.10;99.90;;;;;;5059897;28;20029;-74
2022/10/01 00:59:55;;;;;;;4.53;4.13;;;12.00;99.90;;;;;;5073916;28;20115;-75
2022/10/01 01:02:21;;;;;;;4.43;4.10;;;12.00;99.90;;;;;;5073765;28;20021;-75
2022/10/01 01:04:47;;;;;;;4.68;3.53;;;12.00;99.90;;;;;;5072219;28;20033;-76
2022/10/01 01:07:13;;;;;;;3.92;3.63;;;12.10;99.90;;;;;;5073490;28;20149;-75
2022/10/01 01:09:45;;;;;;;4.93;4.18;;;12.10;99.90;;;;;;5073200;28;20107;-74
2022/10/01 01:12:47;;;;;;;4.20;3.80;;;12.10;99.90;;;;;;5072832;28;20174;-74
2022/10/01 01:15:54;;;;;;;4.13;3.35;;;12.10;99.90;;;;;;5073811;28;20035;-74
2022/10/01 01:18:42;;;;;;;5.30;3.53;;;12.10;99.90;;;;;;4959048;28;20408;-74
2022/10/01 01:21:35;;;;;;;4.15;3.75;;;12.10;99.90;;;;;;5059022;28;20024;-75
2022/10/01 01:24:16;;;;;;;5.20;3.55;;;13.00;99.90;;;;;;5073190;28;20102;-74
2022/10/01 01:27:02;;;;;;;;;;;12.00;99.90;;;;;;5072685;28;20025;-74
2022/10/01 01:29:43;;;;;;;3.38;3.15;;;12.00;99.90;;;;;;5051374;28;19993;-74
2022/10/01 01:32:29;;;;;;;3.65;3.40;;;12.10;99.90;;;;;;5073238;28;20034;-75
2022/10/01 01:35:02;;;;;;;4.32;3.30;;;12.00;99.90;;;;;;5073047;28;20025;-74
2022/10/01 01:37:32;;;;;;;3.72;3.42;;;12.20;99.90;;;;;;5074805;28;20092;-75
2022/10/01 01:39:59;;;;;;;3.53;3.28;;;12.10;99.90;;;;;;5072683;28;20021;-75
2022/10/01 01:42:35;;;;;;;2.63;2.42;;;12.10;99.90;;;;;;5072499;28;20379;-76
2022/10/01 01:45:05;;;;;;;2.83;2.63;;;12.20;99.90;;;;;;5077267;28;20033;-75
2022/10/01 01:47:32;;;;;;;3.15;2.95;;;12.20;99.90;;;;;;5072169;28;20020;-75
2022/10/01 01:50:01;;;;;;;3.67;2.90;;;12.20;99.90;;;;;;5072944;28;20029;-74
2022/10/01 01:52:27;;;;;;;3.35;3.10;;;12.20;99.90;;;;;;5072639;28;20025;-75
2022/10/01 01:54:55;;;;;;;3.80;3.60;;;12.20;99.90;;;;;;5071929;28;20361;-75
2022/10/01 01:57:21;;;;;;;3.33;3.08;;;12.20;99.90;;;;;;5072437;28;20115;-75
2022/10/01 01:59:46;;;;;;;3.13;2.60;;;12.20;99.90;;;;;;5072317;28;20480;-75
2022/10/01 02:02:24;;;;;;;3.10;2.90;;;12.20;99.90;;;;;;5071807;28;20049;-75
2022/10/01 02:05:04;;;;;;;2.92;2.72;;;12.30;99.90;;;;;;5072684;28;20028;-75
2022/10/01 02:07:41;;;;;;;2.88;2.67;;;12.30;99.90;;;;;;5071841;28;20044;-75
2022/10/01 02:10:33;;;;;;;2.95;2.70;;;12.30;99.90;;;;;;5072461;28;20427;-75
2022/10/01 02:13:21;;;;;;;3.17;2.97;;;12.40;99.90;;;;;;5023802;28;20392;-75
2022/10/01 02:16:03;;;;;;;3.00;2.80;;;12.30;99.90;;;;;;5071048;28;20048;-75
2022/10/01 02:18:51;;;;;;;2.72;2.53;;;12.30;99.90;;;;;;5070290;28;20123;-74
2022/10/01 02:21:22;;;;;;;2.97;2.78;;;12.30;99.90;;;;;;5068861;28;20052;-74
2022/10/01 02:23:57;;;;;;;2.90;2.70;;;12.30;99.90;;;;;;5071229;28;20043;-74
2022/10/01 02:26:25;;;;;;;2.50;2.40;;;12.30;99.90;;;;;;5072017;28;20101;-74
2022/10/01 02:28:55;;;;;;;2.75;2.60;;;12.30;99.90;;;;;;5071374;28;20479;-74
2022/10/01 02:31:22;;;;;;;3.92;3.20;;;12.40;99.90;;;;;;5072405;28;20032;-74
2022/10/01 02:33:51;;;;;;;3.42;3.22;;;12.30;99.90;;;;;;5071721;28;20575;-74
2022/10/01 02:36:19;;;;;;;3.03;2.83;;;12.30;99.90;;;;;;5071322;28;20029;-74
2022/10/01 02:38:46;;;;;;;3.03;2.83;;;12.30;99.90;;;;;;5071665;28;20036;-74
2022/10/01 02:41:15;;;;;;;2.47;2.38;;;12.30;99.90;;;;;;5071790;28;20033;-75
2022/10/01 02:43:50;;;;;;;2.97;2.78;;;12.30;99.90;;;;;;5071182;28;20115;-74
2022/10/01 02:46:29;;;;;;;2.90;2.70;;;12.40;99.90;;;;;;5072137;28;20017;-74
2022/10/01 02:48:55;;;;;;;3.92;3.03;;;12.40;99.90;;;;;;5071712;28;20040;-74
2022/10/01 02:51:28;;;;;;;3.30;3.10;;;12.40;99.90;;;;;;5071889;28;20021;-75
2022/10/01 02:54:22;;;;;;;4.93;3.55;;;12.40;99.90;;;;;;5074175;28;20033;-74
2022/10/01 02:59:33;;;;;;;4.82;3.33;;;12.40;99.90;;;;;;5071684;28;20112;-75
2022/10/01 03:01:58;;;;;;;3.55;3.25;;;12.50;99.90;;;;;;5071800;28;20099;-75
2022/10/01 03:04:24;;;;;;;8.10;4.68;;;12.50;99.90;;;;;;5070928;28;20041;-76
2022/10/01 03:06:50;;;;;;;3.75;3.47;;;12.60;99.90;;;;;;5072017;28;20055;-75
2022/10/01 03:09:15;;;;;;;4.22;3.35;;;12.60;99.90;;;;;;5071883;28;20086;-76
2022/10/01 03:11:41;;;;;;;4.07;3.78;;;12.60;99.90;;;;;;5070811;28;20028;-77
2022/10/01 03:14:08;;;;;;;3.90;3.60;;;12.60;99.90;;;;;;5071781;28;20361;-74
2022/10/01 03:16:34;;;;;;;3.97;3.72;;;12.70;99.90;;;;;;5071191;28;20013;-75
2022/10/01 03:18:59;;;;;;;3.83;3.50;;;12.60;99.90;;;;;;5071019;28;20025;-75
2022/10/01 03:21:25;;;;;;;3.80;3.55;;;12.70;99.90;;;;;;5071036;28;20055;-75
2022/10/01 03:23:50;;;;;;;5.03;3.83;;;12.70;99.90;;;;;;5072063;28;20039;-75
2022/10/01 03:26:16;;;;;;;3.65;3.33;;;12.70;99.90;;;;;;5072274;28;20028;-75
2022/10/01 03:28:41;;;;;;;3.80;3.60;;;12.60;99.90;;;;;;5073944;28;20025;-75
2022/10/01 03:31:08;;;;;;;3.70;3.47;;;12.70;99.90;;;;;;5075651;28;20032;-75
2022/10/01 03:33:34;;;;;;;3.63;3.42;;;12.70;99.90;;;;;;5076166;28;20025;-75
2022/10/01 03:36:01;;;;;;;4.28;3.33;;;12.70;99.90;;;;;;5075709;28;20033;-75
2022/10/01 03:38:26;;;;;;;3.63;3.33;;;12.70;99.90;;;;;;5075089;28;20468;-74
2022/10/01 03:40:53;;;;;;;3.80;3.58;;;12.80;99.90;;;;;;5074697;28;20024;-74
2022/10/01 03:43:19;;;;;;;3.33;3.13;;;12.80;99.90;;;;;;5075346;28;20060;-75
2022/10/01 03:45:45;;;;;;;4.30;2.92;;;12.80;99.90;;;;;;5074813;28;20094;-75
2022/10/01 03:48:10;;;;;;;3.67;3.40;;;12.90;99.90;;;;;;5074474;28;20033;-75
2022/10/01 03:50:36;;;;;;;3.45;3.25;;;12.90;99.90;;;;;;5075101;28;20112;-75
2022/10/01 03:53:01;;;;;;;4.00;3.40;;;12.90;99.90;;;;;;5074726;28;20103;-75
2022/10/01 03:55:27;;;;;;;3.67;3.38;;;13.00;99.90;;;;;;5074557;28;20036;-76
2022/10/01 03:57:52;;;;;;;3.13;2.92;;;13.00;99.90;;;;;;5075242;28;20027;-76
2022/10/01 04:00:18;;;;;;;3.47;3.10;;;13.00;99.90;;;;;;5074222;28;20024;-76
2022/10/01 04:02:43;;;;;;;4.30;3.50;;;13.00;99.90;;;;;;5074536;28;20054;-75
2022/10/01 04:05:11;;;;;;;3.70;3.40;;;13.10;99.90;;;;;;5075158;28;20059;-76
2022/10/01 04:07:36;;;;;;;3.65;3.08;;;13.00;99.90;;;;;;5073650;28;20524;-76
2022/10/01 04:10:02;;;;;;;3.67;3.40;;;13.00;99.90;;;;;;5075036;28;20056;-75
2022/10/01 04:12:28;;;;;;;3.55;3.35;;;13.10;99.90;;;;;;5074513;28;20456;-75
2022/10/01 04:14:53;;;;;;;4.47;4.22;;;13.10;99.90;;;;;;5074131;28;20150;-76
2022/10/01 04:17:19;;;;;;;3.92;3.65;;;13.10;99.90;;;;;;5074590;28;20029;-76
2022/10/01 04:19:45;;;;;;;3.75;3.45;;;13.20;99.90;;;;;;5074606;28;20028;-76
2022/10/01 04:22:10;;;;;;;4.18;3.85;;;13.20;99.90;;;;;;5074273;28;20040;-76
2022/10/01 04:24:36;;;;;;;4.60;4.30;;;13.10;99.90;;;;;;5074252;28;20039;-76
2022/10/01 04:27:01;;;;;;;4.00;3.65;;;13.10;99.90;;;;;;5074506;28;20009;-75
2022/10/01 04:29:27;;;;;;;4.57;4.15;;;13.10;99.90;;;;;;5073687;28;20082;-76
2022/10/01 04:31:53;;;;;;;4.60;4.20;;;13.10;99.90;;;;;;5074105;28;20461;-76
2022/10/01 04:34:50;;;;;;;6.68;4.43;;;13.10;99.90;;;;;;5074481;28;20035;-75
2022/10/01 04:37:04;;;;;;;4.18;3.80;;;13.10;99.90;;;;;;5073184;28;20025;-75
2022/10/01 04:39:29;;;;;;;4.88;3.58;;;13.20;99.90;;;;;;5072972;28;20029;-75
2022/10/01 04:41:55;;;;;;;5.32;4.07;;;13.20;99.90;;;;;;5074138;28;20031;-75
2022/10/01 04:44:20;;;;;;;8.57;4.78;;;13.20;99.90;;;;;;5073327;28;20106;-75
2022/10/01 04:46:46;;;;;;;3.97;3.67;;;13.10;99.90;;;;;;5074125;28;20107;-75
2022/10/01 04:49:11;;;;;;;4.40;4.10;;;13.20;99.90;;;;;;5073985;28;20115;-75
2022/10/01 04:51:37;;;;;;;4.90;3.95;;;13.10;99.90;;;;;;5073293;28;20432;-75
2022/10/01 04:54:02;;;;;;;4.25;3.55;;;13.10;99.90;;;;;;5073767;28;20400;-74
2022/10/01 04:56:28;;;;;;;4.15;3.80;;;13.20;99.90;;;;;;5073481;28;20471;-75
2022/10/01 04:58:54;;;;;;;3.83;3.03;;;13.20;99.90;;;;;;5072793;28;20056;-75
2022/10/01 05:01:19;;;;;;;4.82;3.67;;;13.20;99.90;;;;;;5061248;28;20024;-75
2022/10/01 05:03:46;;;;;;;6.00;3.33;;;13.20;99.90;;;;;;5073058;28;20078;-75
2022/10/01 05:06:12;;;;;;;3.58;3.30;;;13.20;99.90;;;;;;5073785;28;20050;-76
2022/10/01 05:08:37;;;;;;;4.45;3.20;;;13.20;99.90;;;;;;5073530;28;20115;-76
2022/10/01 05:11:03;;;;;;;5.00;3.67;;;13.30;99.90;;;;;;5073674;28;20087;-76
2022/10/01 05:13:30;;;;;;;5.18;3.13;;;13.20;99.90;;;;;;5074350;28;20090;-76
2022/10/01 05:15:56;;;;;;;4.90;3.00;;;13.20;99.90;;;;;;5074814;28;20024;-75
2022/10/01 05:18:22;;;;;;;3.50;3.10;;;13.20;99.90;;;;;;5073407;28;20067;-75
2022/10/01 05:20:47;;;;;;;5.82;3.33;;;13.20;99.90;;;;;;5060391;28;20017;-74
2022/10/01 05:23:13;;;;;;;3.05;2.75;;;13.20;99.90;;;;;;5075119;28;20024;-76
2022/10/01 05:25:39;;;;;;;5.60;3.30;;;13.30;99.90;;;;;;5072828;28;20446;-76
2022/10/01 05:28:04;;;;;;;3.80;3.20;;;13.30;99.90;;;;;;5074023;28;20028;-76
2022/10/01 05:30:31;;;;;;;6.45;3.33;;;13.30;99.90;;;;;;5072988;28;20008;-76
2022/10/01 05:33:01;;;;;;;4.38;3.40;;;13.30;99.90;;;;;;5072627;28;20036;-76
2022/10/01 05:35:27;;;;;;;3.15;2.85;;;13.30;99.90;;;;;;5072945;28;20012;-76
2022/10/01 05:37:54;;;;;;;3.80;3.50;;;13.20;99.90;;;;;;5073304;28;20435;-75
2022/10/01 05:40:20;;;;;;;11.00;4.30;;;13.30;99.90;;;;;;5072400;28;20033;-75
2022/10/01 05:42:46;;;;;;;8.82;3.67;;;13.30;99.90;;;;;;5073389;28;20025;-75
2022/10/01 05:45:12;;;;;;;7.18;3.97;;;13.30;99.90;;;;;;5059238;28;20029;-75
2022/10/01 05:47:40;;;;;;;4.05;3.58;;;13.30;99.90;;;;;;5072072;28;20461;-74
2022/10/01 05:50:06;;;;;;;5.38;4.05;;;13.40;99.90;;;;;;5072990;28;20051;-75
2022/10/01 05:52:31;;;;;;;4.03;3.38;;;13.30;99.90;;;;;;5072372;28;20017;-75
2022/10/01 05:54:58;;;;;;;6.45;3.78;;;13.20;99.90;;;;;;5069024;28;20024;-75
2022/10/01 05:57:23;;;;;;;4.80;4.40;;;13.20;99.90;;;;;;5062765;28;20028;-75
2022/10/01 05:59:49;;;;;;;5.15;4.28;;;13.20;99.90;;;;;;5063648;28;20062;-75
2022/10/01 06:02:15;;;;;;;7.22;4.05;;;13.10;99.90;;;;;;5052776;28;20032;-75
2022/10/01 06:04:43;;;;;;;5.20;3.75;;;13.10;99.90;;;;;;5059298;28;20095;-75
2022/10/01 06:07:09;;;;;;;7.07;4.13;;;13.00;99.90;;;;;;5051976;28;20031;-75
2022/10/01 06:09:34;;;;;;;6.38;4.13;;;13.10;99.90;;;;;;5059061;28;20107;-75
2022/10/01 06:12:00;;;;;;;3.30;3.00;;;13.00;99.90;;;;;;5052660;28;20013;-75
2022/10/01 06:14:26;;;;;;;6.38;4.30;;;12.90;99.90;;;;;;5051543;28;20348;-75
2022/10/01 06:16:53;;;;;;;4.68;3.67;;;12.80;99.90;;;;;;5052729;28;20021;-74
2022/10/01 06:19:18;;;;;;;12.23;4.72;;;12.90;99.90;;;;;;5052298;28;20132;-74
2022/10/01 06:21:44;;;;;;;4.20;3.65;;;12.90;99.90;;;;;;5050954;28;20764;-74
2022/10/01 06:24:09;;;;;;;5.53;4.18;;;13.00;99.90;;;;;;5052346;28;20106;-75
2022/10/01 06:26:35;;;;;;;8.43;4.30;;;13.00;99.90;;;;;;5052616;28;20029;-74
2022/10/01 06:29:02;;;;;;;7.38;4.10;;;13.00;99.90;;;;;;5067010;28;20104;-74
2022/10/01 06:31:28;;;;;;;7.95;4.07;;;13.00;99.90;;;;;;5068706;28;20036;-75
2022/10/01 06:33:54;;;;;;;11.32;3.63;;;13.10;99.90;;;;;;5066166;28;20032;-75
2022/10/01 06:36:19;;;;;;;5.65;3.38;;;13.10;99.90;;;;;;5069225;28;20487;-74
2022/10/01 06:38:48;;;;;;;5.05;3.60;;;13.20;99.90;;;;;;5066401;28;20040;-75
2022/10/01 06:41:14;;;;;;;8.10;3.97;;;13.30;99.90;;;;;;5072264;28;20031;-75
2022/10/01 06:43:39;;;;;;;6.07;3.38;;;13.30;99.90;;;;;;5066782;28;20032;-75
2022/10/01 06:46:05;;;;;;;8.05;3.50;;;13.40;99.90;;;;;;5071015;28;20032;-76
2022/10/01 06:48:31;;;;;;;6.28;3.17;;;13.40;99.90;;;;;;5071574;28;20016;-75
2022/10/01 06:50:58;;;;;;;6.55;3.75;;;13.40;99.90;;;;;;5069022;28;20487;-75
2022/10/01 06:53:25;;;;;;;7.38;3.45;;;13.60;99.90;;;;;;5070216;28;20024;-76
2022/10/01 06:55:51;;;;;;;6.50;3.70;;;13.70;99.90;;;;;;5064993;28;20155;-76
2022/10/01 06:58:19;;;;;;;7.07;5.32;;;13.80;99.90;;;;;;5051299;28;20107;-75
2022/10/01 07:00:44;;;;;;;5.32;4.20;;;13.90;99.90;;;;;;5051327;28;20033;-74
2022/10/01 07:03:20;;;;;;;6.35;3.40;;;14.00;99.90;;;;;;5052558;28;20029;-76
2022/10/01 07:05:47;;;;;;;7.30;3.33;;;14.10;99.90;;;;;;5055662;28;20376;-76
2022/10/01 07:08:13;;;;;;;6.90;2.88;;;14.10;99.90;;;;;;5057246;28;20023;-77
2022/10/01 07:10:40;;;;;;;11.25;3.35;;;14.10;99.90;;;;;;5067490;28;20535;-76
2022/10/01 07:13:15;;;;;;;9.27;3.13;;;14.10;99.90;;;;;;5070620;28;20075;-76
2022/10/01 07:15:41;;;;;;;6.38;2.88;;;14.10;99.90;;;;;;5069618;28;20081;-77
2022/10/01 07:18:16;;;;;;;4.50;2.45;;;14.10;99.90;;;;;;5069919;28;20095;-76
2022/10/01 07:20:42;;;;;;;7.43;2.83;;;14.20;99.90;;;;;;5067743;28;20418;-76
2022/10/01 07:23:11;;;;;;;10.07;3.30;;;14.20;99.90;;;;;;5066167;28;20037;-76
2022/10/01 07:25:38;;;;;;;8.30;2.55;;;14.20;99.90;;;;;;5067334;28;20020;-76
2022/10/01 07:28:05;;;;;;;11.60;3.50;;;14.10;99.90;;;;;;5070982;28;20109;-76
2022/10/01 07:30:31;;;;;;;7.38;3.03;;;14.30;99.90;;;;;;5073432;28;20013;-76
2022/10/01 07:32:57;;;;;;;8.20;3.05;;;14.30;99.90;;;;;;5073734;28;20035;-76
2022/10/01 07:35:22;;;;;;;10.75;3.70;;;14.40;99.90;;;;;;5074856;28;20021;-76
2022/10/01 07:37:49;;;;;;;4.38;2.83;;;14.40;99.90;;;;;;5073635;28;20384;-76
2022/10/01 07:40:16;;;;;;;5.13;2.90;;;14.40;99.90;;;;;;5074111;28;20516;-76
2022/10/01 07:42:42;;;;;;;9.02;3.58;;;14.50;99.90;;;;;;5066214;28;20424;-77
2022/10/01 07:45:08;;;;;;;8.32;3.35;;;14.50;99.90;;;;;;5054585;28;20479;-77
2022/10/01 07:47:34;;;;;;;11.43;4.18;;;14.70;99.90;;;;;;5054841;28;20392;-76
2022/10/01 07:50:00;;;;;;;8.82;4.18;;;14.80;99.90;;;;;;5056283;28;20009;-76
2022/10/01 07:52:25;;;;;;;9.32;4.10;;;14.80;99.90;;;;;;5054241;28;20457;-76
2022/10/01 07:54:51;;;;;;;7.20;3.63;;;15.00;99.90;;;;;;5067676;28;20036;-79
2022/10/01 07:57:16;;;;;;;6.50;3.35;;;15.20;99.90;;;;;;5072761;28;20021;-78
2022/10/01 07:59:42;;;;;;;8.93;3.63;;;15.20;99.90;;;;;;5062133;28;20069;-77
2022/10/01 08:02:14;;;;;;;9.55;3.50;;;15.20;99.90;;;;;;5061462;28;20025;-78
2022/10/01 08:07:30;;;;;;;5.13;2.20;;;15.40;99.90;;;;;;5064490;28;20074;-76
2022/10/01 08:09:56;;;;;;;8.75;2.85;;;15.60;99.90;;;;;;5067356;28;20050;-76
2022/10/01 08:12:23;;;;;;;6.57;2.22;;;15.80;99.90;;;;;;5071336;28;20021;-75
2022/10/01 08:14:49;;;;;;;7.63;3.03;;;15.80;99.90;;;;;;5068316;28;20039;-76
2022/10/01 08:17:14;;;;;;;10.27;2.25;;;15.80;99.90;;;;;;5071058;28;20021;-75
2022/10/01 08:19:40;;;;;;;10.65;2.38;;;15.70;99.90;;;;;;5070445;28;20028;-76
2022/10/01 08:22:06;;;;;;;14.65;2.58;;;15.60;99.90;;;;;;5070396;28;20040;-76
2022/10/01 08:24:33;;;;;;;10.70;2.33;;;15.50;99.90;;;;;;5065744;28;20032;-76
2022/10/01 08:26:59;;;;;;;12.25;3.13;;;15.40;99.90;;;;;;5071717;28;20021;-77
2022/10/01 08:29:25;;;;;;;17.23;3.60;;;15.30;99.90;;;;;;5071820;28;20166;-74
2022/10/01 08:31:51;;;;;;;18.92;4.30;;;15.20;99.90;;;;;;5071702;28;20024;-75
2022/10/01 08:34:16;;;;;;;11.13;3.55;;;15.20;99.90;;;;;;5071388;28;20104;-75
2022/10/01 08:36:42;;;;;;;8.88;2.35;;;15.30;99.90;;;;;;5070241;28;20016;-77
2022/10/01 08:39:08;;;;;;;13.05;3.22;;;15.40;99.90;;;;;;5066667;28;20146;-75
2022/10/01 08:41:36;;;;;;;13.15;2.80;;;15.50;99.90;;;;;;5067710;28;20480;-75
2022/10/01 08:44:04;;;;;;;14.57;2.88;;;15.60;99.90;;;;;;5070423;28;20032;-76
2022/10/01 08:46:34;;;;;;;13.88;3.10;;;15.50;99.90;;;;;;5070829;28;20105;-75
2022/10/01 08:49:10;;;;;;;11.83;3.17;;;15.60;99.90;;;;;;5069309;28;20028;-73
2022/10/01 08:51:39;;;;;;;12.82;2.15;;;15.50;99.90;;;;;;5070184;28;20025;-74
2022/10/01 08:54:08;;;;;;;10.55;3.10;;;15.50;99.90;;;;;;5066717;28;20108;-74
2022/10/01 08:56:38;;;;;;;12.30;2.80;;;15.50;99.90;;;;;;5068382;28;20031;-75
2022/10/01 08:59:27;;;;;;;13.30;2.83;;;15.60;99.90;;;;;;5069552;28;20053;-75
2022/10/01 09:01:58;;;;;;;12.70;3.03;;;15.70;99.90;;;;;;5068515;28;20020;-74
2022/10/01 09:04:24;;;;;;;12.25;2.42;;;15.80;99.90;;;;;;5067647;28;20484;-75
2022/10/01 09:07:10;;;;;;;6.40;1.98;;;15.90;99.90;;;;;;5069659;28;20030;-75
2022/10/01 09:09:50;;;;;;;4.97;1.60;;;16.10;99.90;;;;;;5061822;28;20040;-75
2022/10/01 09:12:26;;;;;;;12.55;3.63;;;16.10;99.90;;;;;;5067247;28;20488;-75
2022/10/01 09:15:27;;;;;;;12.73;1.92;;;16.10;99.90;;;;;;5067436;28;20480;-75
2022/10/01 09:18:00;;;;;;;14.98;2.30;;;16.20;99.90;;;;;;5022919;28;20032;-74
2022/10/01 09:20:35;;;;;;;12.45;2.88;;;16.20;99.90;;;;;;5067412;28;20134;-76
2022/10/01 09:23:25;;;;;;;11.10;2.78;;;16.30;99.90;;;;;;5067996;28;20043;-76
2022/10/01 09:25:51;;;;;;;11.75;1.65;;;16.40;99.90;;;;;;5066110;28;20028;-76
2022/10/01 09:28:27;;;;;;;11.00;2.10;;;16.60;99.90;;;;;;5068684;28;20025;-76
2022/10/01 09:30:55;;;;;;;11.05;2.90;;;16.70;99.90;;;;;;5071060;28;20035;-76
2022/10/01 09:33:33;;;;;;;13.55;2.33;;;17.00;99.90;;;;;;5070675;28;20593;-76
2022/10/01 09:36:05;;;;;;;9.80;1.90;;;17.10;99.90;;;;;;5071396;28;20043;-77
2022/10/01 09:38:30;;;;;;;17.65;3.00;;;17.20;99.90;;;;;;5070280;28;20507;-76
2022/10/01 09:40:57;;;;;;;13.05;3.33;;;17.20;99.90;;;;;;5071555;28;20032;-76
2022/10/01 09:43:27;;;;;;;7.03;1.50;;;17.10;99.90;;;;;;5071171;28;20074;-77
2022/10/01 09:45:53;;;;;;;11.82;2.25;;;17.00;99.90;;;;;;5070971;28;20030;-77
2022/10/01 09:48:18;;;;;;;13.90;2.13;;;17.10;99.90;;;;;;5069214;28;20119;-76
2022/10/01 09:50:55;;;;;;;18.88;2.83;;;17.20;99.90;;;;;;5070221;28;20025;-77
2022/10/01 09:53:33;;;;;;;18.83;2.58;;;17.30;99.90;;;;;;5066890;28;20035;-76
2022/10/01 09:56:07;;;;;;;10.55;2.03;;;17.50;99.90;;;;;;5067834;28;20028;-77
2022/10/01 09:58:36;;;;;;;12.10;1.90;;;17.60;99.90;;;;;;5068381;28;20063;-76
2022/10/01 10:01:02;;;;;;;8.60;2.33;;;17.60;99.90;;;;;;5064341;28;20060;-77
2022/10/01 10:03:30;;;;;;;9.63;1.92;;;17.70;99.90;;;;;;5068324;28;20041;-77
2022/10/01 10:05:59;;;;;;;15.50;2.50;;;17.60;99.90;;;;;;5069193;28;20032;-77
2022/10/01 10:08:34;;;;;;;9.65;2.10;;;17.40;99.90;;;;;;5065705;28;20082;-77
2022/10/01 10:11:05;;;;;;;10.98;2.30;;;17.10;99.90;;;;;;5067729;28;20025;-76
2022/10/01 10:13:34;;;;;;;;;;;16.90;99.90;;;;;;5068356;28;20062;-75
2022/10/01 10:16:09;;;;;;;10.88;2.00;;;16.70;99.90;;;;;;5063249;28;19975;-78
2022/10/01 10:18:38;;;;;;;12.50;2.30;;;16.50;99.90;;;;;;5068038;28;20103;-76
2022/10/01 10:21:16;;;;;;;5.57;1.80;;;16.40;99.90;;;;;;5065900;28;20051;-76
2022/10/01 10:23:51;;;;;;;7.40;1.85;;;16.40;99.90;;;;;;5068150;28;20093;-76
2022/10/01 10:26:37;;;;;;;7.63;1.60;;;16.30;99.90;;;;;;5064633;28;20369;-76
2022/10/01 10:29:07;;;;;;;9.25;1.80;;;16.40;99.90;;;;;;5064179;28;20059;-77
2022/10/01 10:31:43;;;;;;;39.40;4.85;;;16.50;99.90;;;;;;5060449;28;20108;-77
2022/10/01 10:34:24;;;;;;;9.43;2.03;;;16.70;99.90;;;;;;5058587;28;20032;-75
2022/10/01 10:36:56;;;;;;;14.93;2.38;;;16.70;99.90;;;;;;5051757;28;20025;-77
2022/10/01 10:39:32;;;;;;;13.20;1.98;;;16.90;99.90;;;;;;5050657;28;20020;-76
2022/10/01 10:41:59;;;;;;;7.88;2.20;;;17.00;99.90;;;;;;5050777;28;20029;-75
2022/10/01 10:44:30;;;;;;;10.32;1.67;;;17.20;99.90;;;;;;5059281;28;20037;-76
2022/10/01 10:47:01;;;;;;;9.27;1.60;;;17.40;99.90;;;;;;5051883;28;20436;-76
2022/10/01 10:49:30;;;;;;;6.93;1.58;;;17.40;99.90;;;;;;5051207;28;20055;-75
2022/10/01 10:51:59;;;;;;;14.20;1.90;;;17.30;99.90;;;;;;5052021;28;20025;-76
2022/10/01 10:54:34;;;;;;;12.25;2.05;;;17.20;99.90;;;;;;5051668;28;20054;-76
2022/10/01 10:57:20;;;;;;;11.82;2.05;;;17.30;99.90;;;;;;5051375;28;20354;-76
2022/10/01 10:59:55;;;;;;;7.32;1.60;;;17.30;99.90;;;;;;5068760;28;20051;-76
2022/10/01 11:02:24;;;;;;;8.98;2.03;;;17.40;99.90;;;;;;5071351;28;20056;-77
2022/10/01 11:04:51;;;;;;;6.45;1.73;;;17.40;99.90;;;;;;5071660;28;20392;-76
2022/10/01 11:07:22;;;;;;;9.23;2.17;;;17.40;99.90;;;;;;5069645;28;20050;-77
2022/10/01 11:10:05;;;;;;;8.45;1.73;;;17.40;99.90;;;;;;5066099;28;20052;-77
2022/10/01 11:12:46;;;;;;;9.18;2.00;;;17.40;99.90;;;;;;5067459;28;20025;-77
2022/10/01 11:15:33;;;;;;;6.68;1.70;;;17.30;99.90;;;;;;5068151;28;20086;-77
2022/10/01 11:18:26;;;;;;;9.70;2.08;;;17.30;99.90;;;;;;5067410;28;20103;-77
2022/10/01 11:20:59;;;;;;;9.65;1.80;;;17.40;99.90;;;;;;5068915;28;20056;-77
2022/10/01 11:23:32;;;;;;;7.18;1.95;;;17.30;99.90;;;;;;5067662;28;20191;-75
2022/10/01 11:26:18;;;;;;;7.93;2.22;;;17.40;99.90;;;;;;5073842;28;20403;-77
2022/10/01 11:29:06;;;;;;;20.63;2.40;;;17.30;99.90;;;;;;5069125;28;20024;-76
2022/10/01 11:31:32;;;;;;;9.30;1.63;;;17.30;99.90;;;;;;5068589;28;20078;-76
2022/10/01 11:34:03;;;;;;;10.98;1.92;;;17.40;99.90;;;;;;5068154;28;20043;-76
2022/10/01 11:36:43;;;;;;;11.43;2.08;;;17.40;99.90;;;;;;5066582;28;20440;-77
2022/10/01 11:39:17;;;;;;;7.35;1.75;;;17.40;99.90;;;;;;5050784;28;20021;-77
2022/10/01 11:41:51;;;;;;;11.50;2.15;;;17.50;99.90;;;;;;5057430;28;20025;-76
2022/10/01 11:44:31;;;;;;;10.60;2.67;;;17.40;99.90;;;;;;5050950;28;20112;-76
2022/10/01 11:47:14;;;;;;;7.13;1.65;;;17.40;99.90;;;;;;5052083;28;20029;-75
2022/10/01 11:49:55;;;;;;;10.75;2.10;;;17.30;99.90;;;;;;5058456;28;20442;-77
2022/10/01 11:52:40;;;;;;;9.88;1.67;;;17.30;99.90;;;;;;5054446;28;20439;-77
2022/10/01 11:58:50;;;;;;;8.40;1.75;;;17.40;99.90;;;;;;5055197;28;20040;-76
2022/10/01 12:01:30;;;;;;;7.57;1.85;;;17.50;99.90;;;;;;5055150;28;20033;-75
2022/10/01 12:04:24;;;;;;;9.15;2.08;;;17.60;99.90;;;;;;5055055;28;20443;-77
2022/10/01 12:07:19;;;;;;;7.00;1.33;;;17.70;99.90;;;;;;5046254;28;20033;-77
2022/10/01 12:09:53;;;;;;;7.68;1.83;;;17.80;99.90;;;;;;5076802;28;20061;-77
2022/10/01 12:12:37;;;;;;;8.10;1.35;;;17.90;99.90;;;;;;5072347;28;20039;-76
2022/10/01 12:15:25;;;;;;;13.98;2.50;;;17.90;99.90;;;;;;5072160;28;20021;-77
2022/10/01 12:18:10;;;;;;;14.18;1.65;;;17.90;99.90;;;;;;5061423;28;20090;-76
2022/10/01 12:20:44;;;;;;;8.35;1.70;;;17.50;99.90;;;;;;5068050;28;20100;-76
2022/10/01 12:23:16;;;;;;;15.50;2.38;;;17.40;99.90;;;;;;5070907;28;20043;-77
2022/10/01 12:25:58;;;;;;;5.85;1.58;;;17.40;99.90;;;;;;5062812;28;20028;-75
2022/10/01 12:28:56;;;;;;;10.02;2.28;;;17.40;99.90;;;;;;5070160;28;20024;-76
2022/10/01 12:31:29;;;;;;;10.52;2.25;;;17.40;99.90;;;;;;5075180;28;20040;-75
2022/10/01 12:34:17;;;;;;;8.98;2.30;;;17.50;99.90;;;;;;5074191;28;20086;-76
2022/10/01 12:37:09;;;;;;;9.07;2.22;;;17.50;99.90;;;;;;5023960;28;20391;-76
2022/10/01 12:39:41;;;;;;;9.02;2.13;;;17.80;99.90;;;;;;5074528;28;20016;-77
2022/10/01 12:42:12;;;;;;;8.55;2.00;;;17.90;99.90;;;;;;5074340;28;20036;-77
2022/10/01 12:44:53;;;;;;;8.23;1.98;;;18.20;99.90;;;;;;5074227;28;20028;-76
2022/10/01 12:47:48;;;;;;;8.73;2.22;;;18.20;99.90;;;;;;5074371;28;20030;-76
2022/10/01 12:50:19;;;;;;;12.18;2.65;;;18.30;99.90;;;;;;5056375;28;20040;-76
2022/10/01 12:53:22;;;;;;;13.70;2.67;;;18.20;99.90;;;;;;5060484;28;20048;-76
2022/10/01 12:55:59;;;;;;;11.95;2.20;;;18.00;99.90;;;;;;5073304;28;20020;-78
2022/10/01 12:58:50;;;;;;;6.65;1.13;;;17.90;99.90;;;;;;5074645;28;20029;-76
2022/10/01 13:01:52;;;;;;;17.25;2.30;;;17.80;99.90;;;;;;5060285;28;20052;-76
2022/10/01 13:04:55;;;;;;;6.65;1.85;;;17.90;99.90;;;;;;5074479;28;20068;-78
2022/10/01 13:08:12;;;;;;;13.10;2.70;;;18.00;99.90;;;;;;5075017;28;20031;-76
2022/10/01 13:10:47;;;;;;;6.88;2.00;;;18.10;99.90;;;;;;5027937;28;20500;-75
2022/10/01 13:13:37;;;;;;;8.85;2.28;;;18.20;99.90;;;;;;5066147;28;20032;-77
2022/10/01 13:16:02;;;;;;;13.00;2.43;;;18.30;99.90;;;;;;5070176;28;20418;-77